createdAt,value
2024-03-25T00:01:09.488Z,4.54
2024-03-25T00:03:20.461Z,4.56
2024-03-25T00:05:28.420Z,4.57
2024-03-25T00:07:35.820Z,4.53
2024-03-25T00:09:43.227Z,4.51
2024-03-25T00:11:55.126Z,4.50
2024-03-25T00:14:01.161Z,4.46
2024-03-25T00:16:09.943Z,4.43
2024-03-25T00:18:17.276Z,4.38
2024-03-25T00:20:25.193Z,4.35
2024-03-25T00:22:32.724Z,4.39
2024-03-25T00:24:40.180Z,4.40
2024-03-25T00:26:48.569Z,4.41
2024-03-25T00:28:55.911Z,4.40
2024-03-25T00:31:03.873Z,4.40
2024-03-25T00:33:12.314Z,4.36
2024-03-25T00:35:19.995Z,4.29
2024-03-25T00:37:27.646Z,4.27
2024-03-25T00:39:36.189Z,4.25
2024-03-25T00:41:44.135Z,4.29
2024-03-25T00:43:51.635Z,4.31
2024-03-25T00:45:59.132Z,4.33
2024-03-25T00:48:08.250Z,4.32
2024-03-25T00:50:16.059Z,4.31
2024-03-25T00:52:23.665Z,4.29
2024-03-25T00:54:31.265Z,4.27
2024-03-25T00:56:38.742Z,4.27
2024-03-25T00:58:47.405Z,4.22
2024-03-25T01:00:55.018Z,4.21
2024-03-25T01:03:03.243Z,4.23
2024-03-25T01:05:12.291Z,4.23
2024-03-25T01:07:19.843Z,4.25
2024-03-25T01:09:27.614Z,4.24
2024-03-25T01:11:35.222Z,4.23
2024-03-25T01:13:43.658Z,4.24
2024-03-25T01:15:51.007Z,4.23
2024-03-25T01:17:58.679Z,4.20
2024-03-25T01:20:07.586Z,4.18
2024-03-25T01:22:15.204Z,4.22
2024-03-25T01:24:22.747Z,4.24
2024-03-25T01:26:30.469Z,4.27
2024-03-25T01:28:38.035Z,4.25
2024-03-25T01:30:45.710Z,4.24
2024-03-25T01:32:53.567Z,4.22
2024-03-25T01:35:01.167Z,4.21
2024-03-25T01:37:09.038Z,4.19
2024-03-25T01:39:16.591Z,4.16
2024-03-25T01:41:25.737Z,4.20
2024-03-25T01:43:33.154Z,4.21
2024-03-25T01:45:40.882Z,4.21
2024-03-25T01:47:48.740Z,4.19
2024-03-25T01:49:57.639Z,4.19
2024-03-25T01:52:07.046Z,4.18
2024-03-25T01:54:17.306Z,4.20
2024-03-25T01:56:26.673Z,4.20
2024-03-25T01:58:34.227Z,4.21
2024-03-25T02:00:41.998Z,4.25
2024-03-25T02:02:49.733Z,4.28
2024-03-25T02:04:57.589Z,4.28
2024-03-25T02:07:06.629Z,4.25
2024-03-25T02:09:16.434Z,4.24
2024-03-25T02:11:24.697Z,4.23
2024-03-25T02:13:32.936Z,4.23
2024-03-25T02:15:40.520Z,4.23
2024-03-25T02:17:47.886Z,4.23
2024-03-25T02:19:55.746Z,4.29
2024-03-25T02:22:03.200Z,4.31
2024-03-25T02:24:13.771Z,4.33
2024-03-25T02:26:21.391Z,4.33
2024-03-25T02:28:28.798Z,4.30
2024-03-25T02:30:37.752Z,4.27
2024-03-25T02:32:45.381Z,4.25
2024-03-25T02:34:55.057Z,4.23
2024-03-25T02:37:02.557Z,4.21
2024-03-25T02:39:11.043Z,4.21
2024-03-25T02:41:18.696Z,4.25
2024-03-25T02:43:28.019Z,4.27
2024-03-25T02:45:35.563Z,4.28
2024-03-25T02:47:43.001Z,4.27
2024-03-25T02:49:50.544Z,4.29
2024-03-25T02:51:58.017Z,4.32
2024-03-25T02:54:05.572Z,4.32
2024-03-25T02:56:12.954Z,4.33
2024-03-25T02:58:20.543Z,4.32
2024-03-25T03:00:28.098Z,4.34
2024-03-25T03:02:35.619Z,4.37
2024-03-25T03:04:43.025Z,4.39
2024-03-25T03:06:50.416Z,4.38
2024-03-25T03:08:57.990Z,4.37
2024-03-25T03:11:06.000Z,4.34
2024-03-25T03:13:13.296Z,4.34
2024-03-25T03:15:20.862Z,4.32
2024-03-25T03:17:28.439Z,4.29
2024-03-25T03:19:36.115Z,4.27
2024-03-25T03:21:43.844Z,4.32
2024-03-25T03:23:51.248Z,4.33
2024-03-25T03:26:00.606Z,4.36
2024-03-25T03:28:08.832Z,4.33
2024-03-25T03:30:16.913Z,4.33
2024-03-25T03:32:24.386Z,4.33
2024-03-25T03:34:32.151Z,4.32
2024-03-25T03:36:39.669Z,4.31
2024-03-25T03:38:47.895Z,4.29
2024-03-25T03:41:01.107Z,4.33
2024-03-25T03:43:08.571Z,4.36
2024-03-25T03:45:16.242Z,4.36
2024-03-25T03:47:23.799Z,4.32
2024-03-25T03:49:31.364Z,4.30
2024-03-25T03:51:38.976Z,4.30
2024-03-25T03:53:46.481Z,4.30
2024-03-25T03:56:02.760Z,4.30
2024-03-25T03:58:10.264Z,4.35
2024-03-25T04:00:19.072Z,4.38
2024-03-25T04:02:26.664Z,4.44
2024-03-25T04:04:34.255Z,4.46
2024-03-25T04:06:42.094Z,4.47
2024-03-25T04:08:49.839Z,4.48
2024-03-25T04:10:57.304Z,4.47
2024-03-25T04:13:05.331Z,4.47
2024-03-25T04:15:18.826Z,4.46
2024-03-25T04:17:26.207Z,4.49
2024-03-25T04:19:33.678Z,4.50
2024-03-25T04:21:41.572Z,4.51
2024-03-25T04:23:50.232Z,4.50
2024-03-25T04:25:57.890Z,4.49
2024-03-25T04:28:06.977Z,4.49
2024-03-25T04:30:15.472Z,4.49
2024-03-25T04:32:23.096Z,4.48
2024-03-25T04:34:30.712Z,4.55
2024-03-25T04:36:38.190Z,4.59
2024-03-25T04:38:45.776Z,4.62
2024-03-25T04:40:53.395Z,4.59
2024-03-25T04:43:00.943Z,4.57
2024-03-25T04:45:10.254Z,4.57
2024-03-25T04:47:17.785Z,4.56
2024-03-25T04:49:25.428Z,4.56
2024-03-25T04:51:33.539Z,4.60
2024-03-25T04:53:41.034Z,4.60
2024-03-25T04:55:48.690Z,4.64
2024-03-25T04:57:56.152Z,4.65
2024-03-25T05:00:05.291Z,4.66
2024-03-25T05:02:12.909Z,4.67
2024-03-25T05:04:21.455Z,4.68
2024-03-25T05:06:28.877Z,4.67
2024-03-25T05:08:36.375Z,4.68
2024-03-25T05:10:43.955Z,4.70
2024-03-25T05:12:51.599Z,4.74
2024-03-25T05:14:59.091Z,4.74
2024-03-25T05:17:09.260Z,4.74
2024-03-25T05:19:17.278Z,4.76
2024-03-25T05:21:24.972Z,4.77
2024-03-25T05:23:32.346Z,4.80
2024-03-25T05:25:41.216Z,4.80
2024-03-25T05:27:48.857Z,4.82
2024-03-25T05:29:56.284Z,4.87
2024-03-25T05:32:05.102Z,4.89
2024-03-25T05:34:14.414Z,4.90
2024-03-25T05:36:22.060Z,4.89
2024-03-25T05:38:29.832Z,4.91
2024-03-25T05:40:37.228Z,4.91
2024-03-25T05:42:48.123Z,4.90
2024-03-25T05:44:55.948Z,4.91
2024-03-25T05:47:04.113Z,4.90
2024-03-25T05:49:11.511Z,4.95
2024-03-25T05:51:20.874Z,5.00
2024-03-25T05:53:28.945Z,5.06
2024-03-25T05:55:36.381Z,5.09
2024-03-25T05:57:43.777Z,5.13
2024-03-25T05:59:51.231Z,5.16
2024-03-25T06:01:58.632Z,5.20
2024-03-25T06:04:06.408Z,5.23
2024-03-25T06:06:13.980Z,5.31
2024-03-25T06:08:25.532Z,5.36
2024-03-25T06:10:36.654Z,5.42
2024-03-25T06:12:44.219Z,5.45
2024-03-25T06:14:51.780Z,5.49
2024-03-25T06:16:59.215Z,5.55
2024-03-25T06:19:06.810Z,5.59
2024-03-25T06:21:14.503Z,5.62
2024-03-25T06:23:30.749Z,5.65
2024-03-25T06:25:39.422Z,5.67
2024-03-25T06:27:47.413Z,5.70
2024-03-25T06:30:15.104Z,5.69
2024-03-25T06:32:40.552Z,5.67
2024-03-25T06:34:49.536Z,5.64
2024-03-25T06:36:56.999Z,5.65
2024-03-25T06:39:04.953Z,5.73
2024-03-25T06:41:12.829Z,5.83
2024-03-25T06:43:20.641Z,5.93
2024-03-25T06:45:28.263Z,6.01
2024-03-25T06:47:35.604Z,6.08
2024-03-25T06:49:43.523Z,6.19
2024-03-25T06:51:51.017Z,6.22
2024-03-25T06:53:58.794Z,6.24
2024-03-25T06:56:07.212Z,6.24
2024-03-25T06:58:14.822Z,6.26
2024-03-25T07:00:23.356Z,6.28
2024-03-25T07:02:31.367Z,6.28
2024-03-25T07:04:39.040Z,6.36
2024-03-25T07:06:46.435Z,6.44
2024-03-25T07:08:54.874Z,6.48
2024-03-25T07:11:03.448Z,6.50
2024-03-25T07:13:12.075Z,6.49
2024-03-25T07:15:19.806Z,6.51
2024-03-25T07:17:27.756Z,6.53
2024-03-25T07:19:35.244Z,6.58
2024-03-25T07:21:44.553Z,6.67
2024-03-25T07:23:52.179Z,6.77
2024-03-25T07:25:59.667Z,6.88
2024-03-25T07:28:08.985Z,6.94
2024-03-25T07:30:17.353Z,6.98
2024-03-25T07:32:25.202Z,7.05
2024-03-25T07:34:33.087Z,7.14
2024-03-25T07:36:40.573Z,7.22
2024-03-25T07:38:48.115Z,7.27
2024-03-25T07:40:55.575Z,7.33
2024-03-25T07:43:04.044Z,7.48
2024-03-25T07:45:15.048Z,7.59
2024-03-25T07:47:23.080Z,7.69
2024-03-25T07:49:30.629Z,7.79
2024-03-25T07:51:40.605Z,7.85
2024-03-25T07:53:48.078Z,7.88
2024-03-25T07:55:55.730Z,7.95
2024-03-25T07:58:03.032Z,8.04
2024-03-25T08:00:12.161Z,8.13
2024-03-25T08:02:22.350Z,8.26
2024-03-25T08:04:30.423Z,8.45
2024-03-25T08:06:37.907Z,8.72
2024-03-25T08:08:45.272Z,8.92
2024-03-25T08:10:53.770Z,9.08
2024-03-25T08:13:01.315Z,9.17
2024-03-25T08:15:10.620Z,9.27
2024-03-25T08:17:18.145Z,9.39
2024-03-25T08:19:26.610Z,9.49
2024-03-25T08:21:34.112Z,9.60
2024-03-25T08:23:42.423Z,9.74
2024-03-25T08:25:50.279Z,9.96
2024-03-25T08:27:57.771Z,10.13
2024-03-25T08:30:06.859Z,10.21
2024-03-25T08:32:14.577Z,10.23
2024-03-25T08:34:22.274Z,10.23
2024-03-25T08:36:29.705Z,10.26
2024-03-25T08:38:37.433Z,10.35
2024-03-25T08:40:45.098Z,10.44
2024-03-25T08:42:52.787Z,10.52
2024-03-25T08:45:00.935Z,10.64
2024-03-25T08:47:10.110Z,10.72
2024-03-25T08:49:17.546Z,10.73
2024-03-25T08:51:24.984Z,10.77
2024-03-25T08:53:32.365Z,10.89
2024-03-25T08:55:40.003Z,11.02
2024-03-25T08:57:47.570Z,11.10
2024-03-25T08:59:55.094Z,11.13
2024-03-25T09:02:02.980Z,11.26
2024-03-25T09:04:13.661Z,11.43
2024-03-25T09:06:25.534Z,11.65
2024-03-25T09:08:53.242Z,11.77
2024-03-25T09:11:08.330Z,11.98
2024-03-25T09:13:15.780Z,12.29
2024-03-25T09:15:23.281Z,12.52
2024-03-25T09:17:30.551Z,12.71
2024-03-25T09:19:38.126Z,12.89
2024-03-25T09:21:45.629Z,13.08
2024-03-25T09:23:53.015Z,13.07
2024-03-25T09:26:00.398Z,13.15
2024-03-25T09:28:09.155Z,13.25
2024-03-25T09:30:18.793Z,13.37
2024-03-25T09:32:27.109Z,13.51
2024-03-25T09:34:34.834Z,13.59
2024-03-25T09:36:42.542Z,13.64
2024-03-25T09:38:51.961Z,13.74
2024-03-25T09:41:01.132Z,13.82
2024-03-25T09:43:14.969Z,13.80
2024-03-25T09:45:26.555Z,13.67
2024-03-25T09:47:34.151Z,13.57
2024-03-25T09:49:44.375Z,13.56
2024-03-25T09:51:53.441Z,13.56
2024-03-25T09:54:01.016Z,13.41
2024-03-25T09:56:09.581Z,13.34
2024-03-25T09:58:19.967Z,13.27
2024-03-25T10:00:28.387Z,13.16
2024-03-25T10:02:38.629Z,13.03
2024-03-25T10:04:50.021Z,13.02
2024-03-25T10:06:57.786Z,13.09
2024-03-25T10:09:08.382Z,13.19
2024-03-25T10:11:15.912Z,13.31
2024-03-25T10:13:23.419Z,13.41
2024-03-25T10:15:31.947Z,13.47
2024-03-25T10:17:39.319Z,13.57
2024-03-25T10:19:47.774Z,13.62
2024-03-25T10:22:05.473Z,13.58
2024-03-25T10:24:12.248Z,13.51
2024-03-25T10:26:33.628Z,13.49
2024-03-25T10:28:41.073Z,13.55
2024-03-25T10:30:49.037Z,13.56
2024-03-25T10:33:04.349Z,13.49
2024-03-25T10:35:13.091Z,13.33
2024-03-25T10:37:23.362Z,13.11
2024-03-25T10:39:34.914Z,12.91
2024-03-25T10:41:44.555Z,12.76
2024-03-25T10:43:54.734Z,12.65
2024-03-25T10:46:02.784Z,12.58
2024-03-25T10:48:17.357Z,12.48
2024-03-25T10:50:30.512Z,12.31
2024-03-25T10:52:39.522Z,12.13
2024-03-25T10:54:48.786Z,12.01
2024-03-25T10:56:56.386Z,11.92
2024-03-25T10:59:04.369Z,11.81
2024-03-25T11:01:12.428Z,11.73
2024-03-25T11:03:22.576Z,11.65
2024-03-25T11:05:30.889Z,11.51
2024-03-25T11:07:39.948Z,11.31
2024-03-25T11:09:47.666Z,11.07
2024-03-25T11:11:56.177Z,10.89
2024-03-25T11:14:06.177Z,10.78
2024-03-25T11:16:14.687Z,10.66
2024-03-25T11:18:26.545Z,10.52
2024-03-25T11:20:32.723Z,10.40
2024-03-25T11:22:51.611Z,10.22
2024-03-25T11:24:59.618Z,10.12
2024-03-25T11:27:09.757Z,10.02
2024-03-25T11:29:17.534Z,9.93
2024-03-25T11:31:27.214Z,9.85
2024-03-25T11:33:38.641Z,9.78
2024-03-25T11:35:46.458Z,9.70
2024-03-25T11:37:54.207Z,9.72
2024-03-25T11:40:08.135Z,9.67
2024-03-25T11:42:16.643Z,9.51
2024-03-25T11:44:26.827Z,9.42
2024-03-25T11:46:38.057Z,9.42
2024-03-25T11:48:46.088Z,9.38
2024-03-25T11:50:53.530Z,9.35
2024-03-25T11:53:01.059Z,9.35
2024-03-25T11:55:10.885Z,9.36
2024-03-25T11:57:18.823Z,9.35
2024-03-25T11:59:26.567Z,9.36
2024-03-25T12:01:34.452Z,9.35
2024-03-25T12:03:44.136Z,9.39
2024-03-25T12:05:52.846Z,9.39
2024-03-25T12:08:00.207Z,9.37
2024-03-25T12:10:27.026Z,9.34
2024-03-25T12:12:36.630Z,9.32
2024-03-25T12:14:44.118Z,9.28
2024-03-25T12:16:52.196Z,9.29
2024-03-25T12:18:59.724Z,9.31
2024-03-25T12:21:11.957Z,9.30
2024-03-25T12:23:19.792Z,9.27
2024-03-25T12:25:27.625Z,9.20
2024-03-25T12:27:35.514Z,9.15
2024-03-25T12:29:43.303Z,9.13
2024-03-25T12:31:58.477Z,9.15
2024-03-25T12:34:14.778Z,9.14
2024-03-25T12:36:27.724Z,9.17
2024-03-25T12:38:35.532Z,9.22
2024-03-25T12:40:43.082Z,9.23
2024-03-25T12:42:55.823Z,9.26
2024-03-25T12:45:04.252Z,9.42
2024-03-25T12:47:11.697Z,9.63
2024-03-25T12:49:19.542Z,9.81
2024-03-25T12:51:26.857Z,9.93
2024-03-25T12:53:34.929Z,10.02
2024-03-25T12:55:42.492Z,10.07
2024-03-25T12:57:49.914Z,10.13
2024-03-25T12:59:57.570Z,10.17
2024-03-25T13:02:05.077Z,10.23
2024-03-25T13:04:12.634Z,10.30
2024-03-25T13:06:20.055Z,10.37
2024-03-25T13:08:28.446Z,10.39
2024-03-25T13:10:37.971Z,10.37
2024-03-25T13:12:45.346Z,10.35
2024-03-25T13:14:52.833Z,10.38
2024-03-25T13:17:00.231Z,10.44
2024-03-25T13:19:08.297Z,10.50
2024-03-25T13:21:15.815Z,10.54
2024-03-25T13:23:23.498Z,10.54
2024-03-25T13:25:30.971Z,10.55
2024-03-25T13:27:39.100Z,10.59
2024-03-25T13:29:46.721Z,10.65
2024-03-25T13:31:59.153Z,10.65
2024-03-25T13:34:10.179Z,10.65
2024-03-25T13:36:17.634Z,10.61
2024-03-25T13:38:25.917Z,10.61
2024-03-25T13:40:35.721Z,10.61
2024-03-25T13:42:44.318Z,10.58
2024-03-25T13:44:51.958Z,10.58
2024-03-25T13:46:59.497Z,10.57
2024-03-25T13:49:07.093Z,10.60
2024-03-25T13:51:14.636Z,10.60
2024-03-25T13:53:22.458Z,10.57
2024-03-25T13:55:30.102Z,10.45
2024-03-25T13:57:37.711Z,10.29
2024-03-25T13:59:45.331Z,10.18
2024-03-25T14:01:54.979Z,10.14
2024-03-25T14:04:02.506Z,10.12
2024-03-25T14:06:10.102Z,10.09
2024-03-25T14:08:17.859Z,10.08
2024-03-25T14:10:25.573Z,10.02
2024-03-25T14:12:33.126Z,9.99
2024-03-25T14:14:40.402Z,9.98
2024-03-25T14:16:47.941Z,9.97
2024-03-25T14:18:55.334Z,9.93
2024-03-25T14:21:02.851Z,9.88
2024-03-25T14:23:10.467Z,9.89
2024-03-25T14:25:18.241Z,9.90
2024-03-25T14:27:25.890Z,9.87
2024-03-25T14:29:33.496Z,9.82
2024-03-25T14:31:41.216Z,9.77
2024-03-25T14:33:48.916Z,9.71
2024-03-25T14:35:56.555Z,9.61
2024-03-25T14:38:04.287Z,9.51
2024-03-25T14:40:14.256Z,9.41
2024-03-25T14:42:21.768Z,9.25
2024-03-25T14:44:29.480Z,9.12
2024-03-25T14:46:37.136Z,9.00
2024-03-25T14:48:44.797Z,8.93
2024-03-25T14:50:52.168Z,8.83
2024-03-25T14:52:59.599Z,8.70
2024-03-25T14:55:11.810Z,8.55
2024-03-25T14:57:19.482Z,8.42
2024-03-25T14:59:27.113Z,8.30
2024-03-25T15:01:37.407Z,8.22
2024-03-25T15:03:46.174Z,8.12
2024-03-25T15:05:53.928Z,8.06
2024-03-25T15:08:02.035Z,8.01
2024-03-25T15:10:11.700Z,7.88
2024-03-25T15:12:19.309Z,7.77
2024-03-25T15:14:30.273Z,7.65
2024-03-25T15:16:38.046Z,7.58
2024-03-25T15:18:45.582Z,7.54
2024-03-25T15:21:03.037Z,7.48
2024-03-25T15:23:10.566Z,7.34
2024-03-25T15:25:18.359Z,7.24
2024-03-25T15:27:26.173Z,7.15
2024-03-25T15:29:34.159Z,7.17
2024-03-25T15:31:41.766Z,7.16
2024-03-25T15:33:49.372Z,7.10
2024-03-25T15:35:56.994Z,7.06
2024-03-25T15:38:05.294Z,7.09
2024-03-25T15:40:17.120Z,7.11
2024-03-25T15:42:23.164Z,7.14
2024-03-25T15:44:31.033Z,7.12
2024-03-25T15:46:38.642Z,7.10
2024-03-25T15:48:46.263Z,7.10
2024-03-25T15:50:55.410Z,7.20
2024-03-25T15:53:02.996Z,7.31
2024-03-25T15:55:11.433Z,7.41
2024-03-25T15:57:19.074Z,7.44
2024-03-25T15:59:27.255Z,7.45
2024-03-25T16:01:35.204Z,7.45
2024-03-25T16:03:42.819Z,7.42
2024-03-25T16:05:50.506Z,7.37
2024-03-25T16:07:58.034Z,7.37
2024-03-25T16:10:05.777Z,7.39
2024-03-25T16:12:13.129Z,7.42
2024-03-25T16:14:21.827Z,7.49
2024-03-25T16:16:29.987Z,7.54
2024-03-25T16:18:38.294Z,7.54
2024-03-25T16:20:45.921Z,7.53
2024-03-25T16:22:53.884Z,7.50
2024-03-25T16:25:02.056Z,7.44
2024-03-25T16:27:09.450Z,7.38
2024-03-25T16:29:17.182Z,7.33
2024-03-25T16:31:24.926Z,7.26
2024-03-25T16:33:32.700Z,7.17
2024-03-25T16:35:40.216Z,7.14
2024-03-25T16:37:47.916Z,7.18
2024-03-25T16:42:03.453Z,7.16
2024-03-25T16:44:11.121Z,7.11
2024-03-25T16:46:18.437Z,7.05
2024-03-25T16:48:26.282Z,7.01
2024-03-25T16:50:34.561Z,6.96
2024-03-25T16:52:42.233Z,6.89
2024-03-25T16:54:49.917Z,6.83
2024-03-25T16:56:57.383Z,6.82
2024-03-25T16:59:05.138Z,6.77
2024-03-25T17:01:12.517Z,6.72
2024-03-25T17:03:20.415Z,6.65
2024-03-25T17:05:28.241Z,6.59
2024-03-25T17:07:35.791Z,6.50
2024-03-25T17:09:43.606Z,6.42
2024-03-25T17:11:53.564Z,6.34
2024-03-25T17:14:01.263Z,6.27
2024-03-25T17:16:09.294Z,6.19
2024-03-25T17:18:16.901Z,6.18
2024-03-25T17:20:24.521Z,6.14
2024-03-25T17:22:32.658Z,6.10
2024-03-25T17:24:44.131Z,6.05
2024-03-25T17:26:52.061Z,5.99
2024-03-25T17:28:59.532Z,5.93
2024-03-25T17:31:08.341Z,5.87
2024-03-25T17:33:16.945Z,5.79
2024-03-25T17:35:24.646Z,5.70
2024-03-25T17:37:32.251Z,5.70
2024-03-25T17:39:39.847Z,5.68
2024-03-25T17:41:47.920Z,5.67
2024-03-25T17:43:55.276Z,5.65
2024-03-25T17:46:05.437Z,5.60
2024-03-25T17:48:12.942Z,5.57
2024-03-25T17:50:21.890Z,5.53
2024-03-25T17:52:29.494Z,5.50
2024-03-25T17:54:36.933Z,5.48
2024-03-25T17:56:45.838Z,5.51
2024-03-25T17:58:53.371Z,5.52
2024-03-25T18:01:00.863Z,5.53
2024-03-25T18:03:08.403Z,5.52
2024-03-25T18:05:16.634Z,5.52
2024-03-25T18:07:24.108Z,5.52
2024-03-25T18:09:31.919Z,5.52
2024-03-25T18:11:39.457Z,5.50
2024-03-25T18:13:47.041Z,5.56
2024-03-25T18:15:55.811Z,5.61
2024-03-25T18:18:03.370Z,5.63
2024-03-25T18:20:12.970Z,5.64
2024-03-25T18:22:20.478Z,5.64
2024-03-25T18:24:36.465Z,5.64
2024-03-25T18:26:45.991Z,5.64
2024-03-25T18:28:53.637Z,5.64
2024-03-25T18:31:02.027Z,5.69
2024-03-25T18:33:09.849Z,5.69
2024-03-25T18:35:17.769Z,5.72
2024-03-25T18:37:25.160Z,5.70
2024-03-25T18:39:34.853Z,5.70
2024-03-25T18:41:42.368Z,5.68
2024-03-25T18:43:50.040Z,5.66
2024-03-25T18:45:57.537Z,5.65
2024-03-25T18:48:05.171Z,5.63
2024-03-25T18:50:13.489Z,5.66
2024-03-25T18:52:20.973Z,5.66
2024-03-25T18:54:28.602Z,5.65
2024-03-25T18:56:36.307Z,5.62
2024-03-25T18:58:45.194Z,5.59
2024-03-25T19:00:52.726Z,5.58
2024-03-25T19:03:00.412Z,5.56
2024-03-25T19:05:08.658Z,5.53
2024-03-25T19:07:16.219Z,5.51
2024-03-25T19:09:23.633Z,5.54
2024-03-25T19:11:31.105Z,5.55
2024-03-25T19:13:38.536Z,5.55
2024-03-25T19:15:46.072Z,5.51
2024-03-25T19:17:53.530Z,5.48
2024-03-25T19:20:01.234Z,5.47
2024-03-25T19:22:09.152Z,5.45
2024-03-25T19:24:16.725Z,5.41
2024-03-25T19:26:24.586Z,5.37
2024-03-25T19:28:32.080Z,5.39
2024-03-25T19:30:39.557Z,5.38
2024-03-25T19:32:47.224Z,5.33
2024-03-25T19:34:54.933Z,5.29
2024-03-25T19:37:02.512Z,5.26
2024-03-25T19:39:10.006Z,5.21
2024-03-25T19:41:17.803Z,5.15
2024-03-25T19:43:26.261Z,5.11
2024-03-25T19:45:34.494Z,5.10
2024-03-25T19:47:42.611Z,5.07
2024-03-25T19:49:50.330Z,4.99
2024-03-25T19:51:57.698Z,4.92
2024-03-25T19:54:05.446Z,4.85
2024-03-25T19:56:13.037Z,4.79
2024-03-25T19:58:20.592Z,4.72
2024-03-25T20:00:28.103Z,4.63
2024-03-25T20:02:35.539Z,4.55
2024-03-25T20:04:43.421Z,4.52
2024-03-25T20:06:50.993Z,4.46
2024-03-25T20:08:58.701Z,4.41
2024-03-25T20:11:06.338Z,4.31
2024-03-25T20:13:13.760Z,4.22
2024-03-25T20:15:21.331Z,4.15
2024-03-25T20:17:29.716Z,4.09
2024-03-25T20:19:37.263Z,4.01
2024-03-25T20:21:45.450Z,3.95
2024-03-25T20:23:52.995Z,3.95
2024-03-25T20:26:00.506Z,3.94
2024-03-25T20:28:08.620Z,3.94
2024-03-25T20:30:16.705Z,3.89
2024-03-25T20:32:24.268Z,3.86
2024-03-25T20:34:31.704Z,3.83
2024-03-25T20:36:39.213Z,3.79
2024-03-25T20:38:46.610Z,3.75
2024-03-25T20:40:53.983Z,3.75
2024-03-25T20:43:01.372Z,3.72
2024-03-25T20:45:13.311Z,3.69
2024-03-25T20:47:19.588Z,3.62
2024-03-25T20:49:26.958Z,3.55
2024-03-25T20:51:34.296Z,3.49
2024-03-25T20:53:41.934Z,3.41
2024-03-25T20:55:49.278Z,3.35
2024-03-25T20:57:56.820Z,3.30
2024-03-25T21:00:06.256Z,3.30
2024-03-25T21:02:13.798Z,3.30
2024-03-25T21:04:21.224Z,3.27
2024-03-25T21:06:28.520Z,3.22
2024-03-25T21:08:35.988Z,3.18
2024-03-25T21:10:43.669Z,3.15
2024-03-25T21:12:51.195Z,3.10
2024-03-25T21:14:58.897Z,3.06
2024-03-25T21:17:07.497Z,3.03
2024-03-25T21:19:15.099Z,3.04
2024-03-25T21:21:22.600Z,3.01
2024-03-25T21:23:30.070Z,2.96
2024-03-25T21:25:37.645Z,2.86
2024-03-25T21:27:45.267Z,2.79
2024-03-25T21:29:52.733Z,2.71
2024-03-25T21:32:00.289Z,2.67
2024-03-25T21:34:07.933Z,2.61
2024-03-25T21:36:15.730Z,2.61
2024-03-25T21:38:23.528Z,2.59
2024-03-25T21:40:30.958Z,2.58
2024-03-25T21:42:38.297Z,2.53
2024-03-25T21:44:45.590Z,2.50
2024-03-25T21:46:53.077Z,2.46
2024-03-25T21:49:00.506Z,2.43
2024-03-25T21:51:08.382Z,2.37
2024-03-25T21:53:15.857Z,2.30
2024-03-25T21:55:25.951Z,2.29
2024-03-25T21:57:35.066Z,2.27
2024-03-25T21:59:42.803Z,2.24
2024-03-25T22:01:50.310Z,2.15
2024-03-25T22:03:59.757Z,2.12
2024-03-25T22:06:07.866Z,2.08
2024-03-25T22:08:15.259Z,2.05
2024-03-25T22:10:22.908Z,2.01
2024-03-25T22:12:34.795Z,1.96
2024-03-25T22:14:43.027Z,1.96
2024-03-25T22:16:50.455Z,1.97
2024-03-25T22:18:58.090Z,1.96
2024-03-25T22:21:08.293Z,1.91
2024-03-25T22:23:15.907Z,1.90
2024-03-25T22:25:23.713Z,1.87
2024-03-25T22:27:31.060Z,1.84
2024-03-25T22:29:38.565Z,1.80
2024-03-25T22:31:45.940Z,1.76
2024-03-25T22:33:53.369Z,1.76
2024-03-25T22:36:02.998Z,1.77
2024-03-25T22:38:10.526Z,1.77
2024-03-25T22:40:18.457Z,1.72
2024-03-25T22:42:26.076Z,1.69
2024-03-25T22:44:33.394Z,1.66
2024-03-25T22:46:40.926Z,1.64
2024-03-25T22:48:48.364Z,1.60
2024-03-25T22:50:59.891Z,1.56
2024-03-25T22:53:07.430Z,1.57
2024-03-25T22:55:14.833Z,1.53
2024-03-25T22:57:22.412Z,1.49
2024-03-25T22:59:29.701Z,1.40
2024-03-25T23:01:37.153Z,1.34
2024-03-25T23:03:44.666Z,1.31
2024-03-25T23:05:57.526Z,1.26
2024-03-25T23:08:04.855Z,1.22
2024-03-25T23:10:12.900Z,1.26
2024-03-25T23:12:20.713Z,1.28
2024-03-25T23:14:28.245Z,1.30
2024-03-25T23:16:35.869Z,1.29
2024-03-25T23:18:43.459Z,1.26
2024-03-25T23:20:52.302Z,1.24
2024-03-25T23:22:59.687Z,1.21
2024-03-25T23:25:08.320Z,1.17
2024-03-25T23:27:15.722Z,1.14
2024-03-25T23:29:24.325Z,1.13
2024-03-25T23:31:32.898Z,1.10
2024-03-25T23:33:41.944Z,1.08
2024-03-25T23:35:49.697Z,1.04
2024-03-25T23:37:57.366Z,1.01
2024-03-25T23:40:05.409Z,0.96
2024-03-25T23:42:13.655Z,0.91
2024-03-25T23:44:21.115Z,0.86
2024-03-25T23:46:28.529Z,0.88
2024-03-25T23:48:36.137Z,0.89
2024-03-25T23:50:43.402Z,0.87
2024-03-25T23:52:51.473Z,0.84
2024-03-25T23:54:59.058Z,0.81
2024-03-25T23:57:10.584Z,0.78
2024-03-25T23:59:18.116Z,0.74
